Terminal Aerodrome Forecast
Issued by NWS Tiyan, Guam

Home | Current Version | Previous Version | Text Only | Print | Product List | Glossary On
Versions: 1 2 3 4 5 6 7 8 9 10 11 12 13 14 15 16 17 18 19 20 21 22 23 24 25 26 27 28 29 30 31 32 33 34 35 36 37 38 39 40 41
000
FTPQ31 PGUM 301700
TAFGUM
TAF
PGUM 301731Z 3018/0124 21010KT P6SM VCSH SCT015 BKN050 BKN100
      TEMPO 3018/3021 2SM RA BR BKN015
     FM302200 20015G25KT P6SM VCSH SCT015 BKN050 BKN100
     FM011200 20010G17KT P6SM VCSH SCT015 SCT050 BKN100=

USA.gov is the U.S. government's official web portal to all federal, state and local government web resources and services.